Lucinda, PA (16235)

4:27 AM EDT on October 01, 2014 (GMT -0400)
Penn Oaks Campground | Change Station
CLOSE
Current Station
Personal Weather Station
Location: Leeper, PA
Elevation: 1621 ft
Nearby Weather Stations
Active Advisory: Special Statement

Elev 1621 ft 41.37 °N, 79.29 °W | Updated 6 seconds ago

Fog
Fog
47.3 °F
Feels Like 47 °F
N
0.0
Wind Variable Wind from SW
Gusts 0.0 mph

Today
High -- | Low -- °F
--% Chance of Precip.
Yesterday
High -- | Low -- °F
Precip. -- in
7:14 AM 6:59 PM
Waxing Crescent, 45% visible
Pressure 30.00 in
Visibility 0.2 miles
Clouds Overcast 100 ft
Windchill 47 °F
Dew Point 47 °F
Humidity 97%
Rainfall 0.00 in
Snow Depth Not available.
UV 0 out of 12
Pollen 1.90 out of 12
Ozone Good
PM2.5 Moderate
Flu Activity Not available.
METAR KFKL 010755Z 35004KT M1/4SM OVC001 12/11 A3000 RMK AO1

More Conditions Fewer Conditions

Pressure 30.00 in
Visibility 0.2 miles
Clouds Overcast 100 ft
Windchill 47 °F
Dew Point 47 °F
Humidity 97%
Rainfall 0.00 in
Snow Depth Not available.
UV 0 out of 12
Pollen 1.90 out of 12
Ozone Good
PM2.5 Moderate
Flu Activity Not available.
METAR KFKL 010755Z 35004KT M1/4SM OVC001 12/11 A3000 RMK AO1

More Conditions Fewer Conditions

10-Day Weather Forecast

Almanac

Astronomy

Oct. 01, 2014 Rise Set
Actual Time 7:14 AM EDT 6:59 PM EDT
Civil Twilight 6:46 AM EDT 7:26 PM EDT
Nautical Twilight 6:14 AM EDT 7:58 PM EDT
Astronomical Twilight 5:42 AM EDT 8:31 PM EDT
Moon 2:16 PM EDT No Moon Set
Length of Visible Light 12h 40m
Length of Day
11h 45m
Tomorrow will be 2m 44s shorter.
Waxing Crescent, 45% of the Moon is Illuminated
Today
Waxing Crescent
Oct 1
First Quarter
Oct 8
Full
Oct 15
Last Quarter
Oct 23
New

Today's Extremes

State Highs State Lows

Community

WunderPhotos

Upload Photos

1,757,902 photos uploaded!

Nearby

Air Quality

  Air Quality AQ Index Pollutant
Yesterday Moderate
PM2.5
Yesterday Good
OZONE
Current Moderate
PM2.5
Current Good
OZONE
Wednesday Moderate
PM2.5
Thursday Moderate
PM2.5

Snow Depth

Station Depth Elevation
No new snow has been reported.

Earthquake Activity

City Distance Mag. Time & Date
No recent earthquake activity has been reported nearby.
Minimum magnitude displayed is 2.5.

Coastal Water Temperatures

Place Temperature
No Stations Reporting

Nearby Weather Stations